createdAt,value
2023-01-29T00:02:18.512Z,75.89
2023-01-29T00:05:28.450Z,76.20
2023-01-29T00:08:30.127Z,76.22
2023-01-29T00:11:31.559Z,75.98
2023-01-29T00:14:32.897Z,75.92
2023-01-29T00:17:34.762Z,75.93
2023-01-29T00:20:36.089Z,75.69
2023-01-29T00:23:37.779Z,76.11
2023-01-29T00:26:39.502Z,76.27
2023-01-29T00:29:41.202Z,76.10
2023-01-29T00:32:42.694Z,75.84
2023-01-29T00:35:44.624Z,75.83
2023-01-29T00:38:53.900Z,75.66
2023-01-29T00:42:13.709Z,75.48
2023-01-29T00:45:17.999Z,75.26
2023-01-29T00:48:20.482Z,75.18
2023-01-29T00:51:21.876Z,75.02
2023-01-29T00:54:23.271Z,75.46
2023-01-29T00:57:26.968Z,75.20
2023-01-29T01:00:28.750Z,75.34
2023-01-29T01:03:34.782Z,75.25
2023-01-29T01:06:38.121Z,74.87
2023-01-29T01:09:58.321Z,75.12
2023-01-29T01:13:02.342Z,75.08
2023-01-29T01:16:12.962Z,75.14
2023-01-29T01:19:15.706Z,75.38
2023-01-29T01:22:17.393Z,75.23
2023-01-29T01:25:19.394Z,74.97
2023-01-29T01:28:20.827Z,75.08
2023-01-29T01:31:22.421Z,75.13
2023-01-29T01:34:26.281Z,75.33
2023-01-29T01:37:27.692Z,75.37
2023-01-29T01:40:29.701Z,75.48
2023-01-29T01:43:49.147Z,75.41
2023-01-29T01:46:51.395Z,75.61
2023-01-29T01:49:55.454Z,75.48
2023-01-29T01:53:02.290Z,75.44
2023-01-29T01:56:13.927Z,75.69
2023-01-29T01:59:18.960Z,75.66
2023-01-29T02:02:39.537Z,75.84
2023-01-29T02:06:00.417Z,75.60
2023-01-29T02:09:26.296Z,75.51
2023-01-29T02:12:30.606Z,75.32
2023-01-29T02:15:33.891Z,75.44
2023-01-29T02:18:37.440Z,75.77
2023-01-29T02:21:43.657Z,75.67
2023-01-29T02:24:48.147Z,76.01
2023-01-29T02:28:14.598Z,76.09
2023-01-29T02:31:24.829Z,76.27
2023-01-29T02:34:51.235Z,76.46
2023-01-29T02:38:08.247Z,76.38
2023-01-29T02:41:09.652Z,76.15
2023-01-29T02:44:27.268Z,76.16
2023-01-29T02:47:34.349Z,76.08
2023-01-29T02:50:35.666Z,75.99
2023-01-29T02:54:12.190Z,76.19
2023-01-29T02:57:22.327Z,76.00
2023-01-29T03:00:29.461Z,75.94
2023-01-29T03:03:39.032Z,75.85
2023-01-29T03:06:51.375Z,76.13
2023-01-29T03:09:54.330Z,75.94
2023-01-29T03:13:19.647Z,75.67
2023-01-29T03:16:42.026Z,76.00
2023-01-29T03:19:46.568Z,75.78
2023-01-29T03:23:05.213Z,75.61
2023-01-29T03:26:25.453Z,75.88
2023-01-29T03:29:49.869Z,75.60
2023-01-29T03:32:55.319Z,75.74
2023-01-29T03:36:08.455Z,75.98
2023-01-29T03:39:11.350Z,75.66
2023-01-29T03:42:21.342Z,75.92
2023-01-29T03:45:31.341Z,75.53
2023-01-29T03:49:18.254Z,75.39
2023-01-29T03:52:38.649Z,75.38
2023-01-29T03:55:58.988Z,75.43
2023-01-29T03:59:11.363Z,75.85
2023-01-29T04:02:42.059Z,75.77
2023-01-29T04:06:04.747Z,75.85
2023-01-29T04:09:16.199Z,75.20
2023-01-29T04:12:27.499Z,75.46
2023-01-29T04:15:35.804Z,75.52
2023-01-29T04:18:37.752Z,75.21
2023-01-29T04:21:48.321Z,75.15
2023-01-29T04:24:50.699Z,75.47
2023-01-29T04:28:08.063Z,75.47
2023-01-29T04:31:12.039Z,75.71
2023-01-29T04:34:28.632Z,75.43
2023-01-29T04:37:30.375Z,75.20
2023-01-29T04:40:44.408Z,75.03
2023-01-29T04:44:18.214Z,75.20
2023-01-29T04:47:53.411Z,75.25
2023-01-29T04:51:20.411Z,75.32
2023-01-29T04:54:30.915Z,75.04
2023-01-29T04:57:50.173Z,74.91
2023-01-29T05:00:53.615Z,74.78
2023-01-29T05:03:56.752Z,74.44
2023-01-29T05:07:04.026Z,74.79
2023-01-29T05:10:07.583Z,75.02
2023-01-29T05:13:12.880Z,74.92
2023-01-29T05:16:27.246Z,75.08
2023-01-29T05:19:28.631Z,74.76
2023-01-29T05:22:30.335Z,74.81
2023-01-29T05:25:32.761Z,75.07
2023-01-29T05:28:34.138Z,75.04
2023-01-29T05:31:35.550Z,74.92
2023-01-29T05:34:36.950Z,74.93
2023-01-29T05:37:38.377Z,74.67
2023-01-29T05:40:40.211Z,74.75
2023-01-29T05:43:41.539Z,74.95
2023-01-29T05:46:43.304Z,74.95
2023-01-29T05:49:44.753Z,74.65
2023-01-29T05:52:46.099Z,74.74
2023-01-29T05:55:47.932Z,74.86
2023-01-29T05:58:49.337Z,75.04
2023-01-29T06:01:50.729Z,74.90
2023-01-29T06:04:52.150Z,75.03
2023-01-29T06:07:53.520Z,74.93
2023-01-29T06:10:54.945Z,75.07
2023-01-29T06:13:56.359Z,75.28
2023-01-29T06:16:57.806Z,75.27
2023-01-29T06:19:59.163Z,74.71
2023-01-29T06:23:00.573Z,74.67
2023-01-29T06:26:11.655Z,74.98
2023-01-29T06:29:13.221Z,74.92
2023-01-29T06:32:14.554Z,75.03
2023-01-29T06:35:16.013Z,74.97
2023-01-29T06:38:17.397Z,75.21
2023-01-29T06:41:22.081Z,74.98
2023-01-29T06:44:23.495Z,75.06
2023-01-29T06:47:26.670Z,74.89
2023-01-29T06:50:27.998Z,75.25
2023-01-29T06:53:29.844Z,75.14
2023-01-29T06:56:31.254Z,75.49
2023-01-29T06:59:32.722Z,75.16
2023-01-29T07:02:34.149Z,75.16
2023-01-29T07:05:35.656Z,75.26
2023-01-29T07:08:38.735Z,75.09
2023-01-29T07:11:40.099Z,75.16
2023-01-29T07:14:41.427Z,74.93
2023-01-29T07:17:42.793Z,75.04
2023-01-29T07:20:44.162Z,74.88
2023-01-29T07:23:45.520Z,74.73
2023-01-29T07:26:46.869Z,74.77
2023-01-29T07:29:48.309Z,74.67
2023-01-29T07:32:49.669Z,74.88
2023-01-29T07:35:52.017Z,74.94
2023-01-29T07:38:53.388Z,74.93
2023-01-29T07:41:54.826Z,74.79
2023-01-29T07:44:57.708Z,74.73
2023-01-29T07:47:59.103Z,74.78
2023-01-29T07:51:00.607Z,73.88
2023-01-29T07:54:02.065Z,74.04
2023-01-29T07:57:03.444Z,73.89
2023-01-29T08:00:05.188Z,73.75
2023-01-29T08:03:16.450Z,73.51
2023-01-29T08:06:18.691Z,73.42
2023-01-29T08:09:20.056Z,73.83
2023-01-29T08:12:21.489Z,73.65
2023-01-29T08:15:23.526Z,73.51
2023-01-29T08:18:24.985Z,73.35
2023-01-29T08:21:26.355Z,73.37
2023-01-29T08:24:36.089Z,73.29
2023-01-29T08:27:49.236Z,73.10
2023-01-29T08:30:50.787Z,73.05
2023-01-29T08:33:56.580Z,73.06
2023-01-29T08:36:58.195Z,73.00
2023-01-29T08:39:59.578Z,72.72
2023-01-29T08:43:04.151Z,72.71
2023-01-29T08:46:07.911Z,72.82
2023-01-29T08:49:09.413Z,72.83
2023-01-29T08:52:10.792Z,72.16
2023-01-29T08:55:13.089Z,72.26
2023-01-29T08:58:14.487Z,72.49
2023-01-29T09:01:16.079Z,72.60
2023-01-29T09:04:17.525Z,72.62
2023-01-29T09:07:21.146Z,72.32
2023-01-29T09:10:22.621Z,72.59
2023-01-29T09:13:23.965Z,72.52
2023-01-29T09:16:25.458Z,72.63
2023-01-29T09:19:26.935Z,72.55
2023-01-29T09:22:28.348Z,72.53
2023-01-29T09:25:29.731Z,72.33
2023-01-29T09:28:31.108Z,71.82
2023-01-29T09:31:33.001Z,71.89
2023-01-29T09:34:34.772Z,71.76
2023-01-29T09:37:36.269Z,71.58
2023-01-29T09:40:47.768Z,71.84
2023-01-29T09:43:54.768Z,71.57
2023-01-29T09:46:59.487Z,71.93
2023-01-29T09:50:06.382Z,71.79
2023-01-29T09:53:18.571Z,71.42
2023-01-29T09:56:22.995Z,71.77
2023-01-29T09:59:27.283Z,71.36
2023-01-29T10:02:47.611Z,71.36
2023-01-29T10:06:08.638Z,71.14
2023-01-29T10:09:35.090Z,70.57
2023-01-29T10:13:02.221Z,70.92
2023-01-29T10:16:22.277Z,70.88
2023-01-29T10:19:51.873Z,71.14
2023-01-29T10:23:20.990Z,70.81
2023-01-29T10:26:25.757Z,70.74
2023-01-29T10:29:30.251Z,70.32
2023-01-29T10:32:31.907Z,70.06
2023-01-29T10:35:38.745Z,70.35
2023-01-29T10:38:44.958Z,70.24
2023-01-29T10:42:02.952Z,69.72
2023-01-29T10:45:09.875Z,69.62
2023-01-29T10:48:17.521Z,70.07
2023-01-29T10:51:35.999Z,70.02
2023-01-29T10:54:56.074Z,70.07
2023-01-29T10:58:07.681Z,69.70
2023-01-29T11:01:10.313Z,69.64
2023-01-29T11:04:13.755Z,69.11
2023-01-29T11:07:17.760Z,69.33
2023-01-29T11:10:22.771Z,69.17
2023-01-29T11:13:30.588Z,69.23
2023-01-29T11:16:43.728Z,69.05
2023-01-29T11:19:47.890Z,68.62
2023-01-29T11:22:54.997Z,68.47
2023-01-29T11:25:58.521Z,68.73
2023-01-29T11:28:59.991Z,68.96
2023-01-29T11:32:05.802Z,68.87
2023-01-29T11:35:13.283Z,69.03
2023-01-29T11:38:28.227Z,69.00
2023-01-29T11:41:29.982Z,68.82
2023-01-29T11:44:35.793Z,68.84
2023-01-29T11:47:38.176Z,68.71
2023-01-29T11:50:40.304Z,68.46
2023-01-29T11:53:49.003Z,68.35
2023-01-29T11:56:51.127Z,68.63
2023-01-29T11:59:54.829Z,68.22
2023-01-29T12:02:58.974Z,68.11
2023-01-29T12:06:08.370Z,67.94
2023-01-29T12:09:16.980Z,67.68
2023-01-29T12:12:21.654Z,68.03
2023-01-29T12:15:26.185Z,68.00
2023-01-29T12:18:27.510Z,67.79
2023-01-29T12:21:50.379Z,67.76
2023-01-29T12:25:00.804Z,67.61
2023-01-29T12:28:24.193Z,67.22
2023-01-29T12:31:31.414Z,67.14
2023-01-29T12:34:48.432Z,67.34
2023-01-29T12:38:05.244Z,67.09
2023-01-29T12:41:27.901Z,66.59
2023-01-29T12:44:56.756Z,66.65
2023-01-29T12:48:07.184Z,66.39
2023-01-29T12:51:17.081Z,66.35
2023-01-29T12:54:27.063Z,66.28
2023-01-29T12:57:34.292Z,65.57
2023-01-29T13:00:40.009Z,64.74
2023-01-29T13:04:02.977Z,63.77
2023-01-29T13:07:32.582Z,65.09
2023-01-29T13:10:42.489Z,64.45
2023-01-29T13:13:54.344Z,64.16
2023-01-29T13:17:07.682Z,64.69
2023-01-29T13:20:23.970Z,64.83
2023-01-29T13:23:33.619Z,64.48
2023-01-29T13:26:35.843Z,63.98
2023-01-29T13:29:37.391Z,64.32
2023-01-29T13:32:38.971Z,64.39
2023-01-29T13:35:42.897Z,63.77
2023-01-29T13:38:44.503Z,63.74
2023-01-29T13:41:46.181Z,64.11
2023-01-29T13:44:54.754Z,64.35
2023-01-29T13:48:27.035Z,64.11
2023-01-29T13:51:35.870Z,64.38
2023-01-29T13:54:37.318Z,64.58
2023-01-29T13:57:38.745Z,64.54
2023-01-29T14:00:40.171Z,64.76
2023-01-29T14:04:03.326Z,64.44
2023-01-29T14:07:38.742Z,64.39
2023-01-29T14:10:41.985Z,64.59
2023-01-29T14:13:48.433Z,64.74
2023-01-29T14:16:50.067Z,64.76
2023-01-29T14:19:57.340Z,64.94
2023-01-29T14:23:00.460Z,64.82
2023-01-29T14:26:05.202Z,64.65
2023-01-29T14:29:16.566Z,64.79
2023-01-29T14:32:24.356Z,65.20
2023-01-29T14:35:29.944Z,65.14
2023-01-29T14:38:32.566Z,65.02
2023-01-29T14:41:35.589Z,65.30
2023-01-29T14:44:47.882Z,65.45
2023-01-29T14:47:49.770Z,65.06
2023-01-29T14:50:55.282Z,65.15
2023-01-29T14:54:27.474Z,65.25
2023-01-29T14:57:30.480Z,65.33
2023-01-29T15:00:43.003Z,65.28
2023-01-29T15:03:49.173Z,65.23
2023-01-29T15:07:03.999Z,65.54
2023-01-29T15:10:22.822Z,65.63
2023-01-29T15:13:37.454Z,65.85
2023-01-29T15:17:16.417Z,65.77
2023-01-29T15:20:33.103Z,66.28
2023-01-29T15:23:34.535Z,66.65
2023-01-29T15:26:36.311Z,66.50
2023-01-29T15:29:38.985Z,66.82
2023-01-29T15:32:40.528Z,66.84
2023-01-29T15:35:42.709Z,66.69
2023-01-29T15:38:44.196Z,66.34
2023-01-29T15:41:45.896Z,66.69
2023-01-29T15:44:47.601Z,66.45
2023-01-29T15:47:50.003Z,66.94
2023-01-29T15:50:54.533Z,67.27
2023-01-29T15:53:57.791Z,67.09
2023-01-29T15:57:00.842Z,67.22
2023-01-29T16:00:04.371Z,67.43
2023-01-29T16:03:14.928Z,67.51
2023-01-29T16:06:16.691Z,67.44
2023-01-29T16:09:22.969Z,67.62
2023-01-29T16:12:24.791Z,67.51
2023-01-29T16:15:37.849Z,67.28
2023-01-29T16:18:54.224Z,67.31
2023-01-29T16:22:03.385Z,67.54
2023-01-29T16:25:10.627Z,67.80
2023-01-29T16:28:12.276Z,67.85
2023-01-29T16:31:21.902Z,68.36
2023-01-29T16:34:32.222Z,68.46
2023-01-29T16:37:35.706Z,68.33
2023-01-29T16:40:38.183Z,68.30
2023-01-29T16:43:47.518Z,68.54
2023-01-29T16:46:52.196Z,68.60
2023-01-29T16:50:14.786Z,68.47
2023-01-29T16:53:22.616Z,68.43
2023-01-29T16:56:27.314Z,68.72
2023-01-29T16:59:32.562Z,69.06
2023-01-29T17:02:38.682Z,69.38
2023-01-29T17:05:40.696Z,69.31
2023-01-29T17:08:42.726Z,69.28
2023-01-29T17:11:44.183Z,69.45
2023-01-29T17:14:58.254Z,69.41
2023-01-29T17:18:00.165Z,69.73
2023-01-29T17:21:01.554Z,69.97
2023-01-29T17:24:03.148Z,69.92
2023-01-29T17:27:04.561Z,69.85
2023-01-29T17:30:07.227Z,69.83
2023-01-29T17:33:14.093Z,70.18
2023-01-29T17:36:17.058Z,69.83
2023-01-29T17:39:23.503Z,69.73
2023-01-29T17:42:25.602Z,69.93
2023-01-29T17:45:27.008Z,70.04
2023-01-29T17:48:29.600Z,70.19
2023-01-29T17:51:31.007Z,70.28
2023-01-29T17:54:32.623Z,70.35
2023-01-29T17:57:33.990Z,70.39
2023-01-29T18:00:35.402Z,70.47
2023-01-29T18:03:37.013Z,70.49
2023-01-29T18:06:40.516Z,70.88
2023-01-29T18:09:43.536Z,70.70
2023-01-29T18:12:45.189Z,70.84
2023-01-29T18:15:46.649Z,70.93
2023-01-29T18:18:49.530Z,70.63
2023-01-29T18:21:51.778Z,70.74
2023-01-29T18:24:53.267Z,70.82
2023-01-29T18:27:54.676Z,70.48
2023-01-29T18:30:56.412Z,70.72
2023-01-29T18:33:57.971Z,71.06
2023-01-29T18:36:59.612Z,70.92
2023-01-29T18:40:01.140Z,71.27
2023-01-29T18:43:03.607Z,71.11
2023-01-29T18:46:06.158Z,71.25
2023-01-29T18:49:08.072Z,71.32
2023-01-29T18:52:09.516Z,71.11
2023-01-29T18:55:11.023Z,71.35
2023-01-29T18:58:26.558Z,71.34
2023-01-29T19:01:33.848Z,71.28
2023-01-29T19:04:35.472Z,71.43
2023-01-29T19:07:37.090Z,71.40
2023-01-29T19:10:40.048Z,71.29
2023-01-29T19:13:45.026Z,71.28
2023-01-29T19:16:46.644Z,71.60
2023-01-29T19:19:48.854Z,71.46
2023-01-29T19:22:50.405Z,71.78
2023-01-29T19:25:51.916Z,71.94
2023-01-29T19:28:53.425Z,71.86
2023-01-29T19:31:54.895Z,71.85
2023-01-29T19:34:57.199Z,71.91
2023-01-29T19:37:59.341Z,71.92
2023-01-29T19:41:00.886Z,71.99
2023-01-29T19:44:02.457Z,72.17
2023-01-29T19:47:04.244Z,72.08
2023-01-29T19:50:07.224Z,72.05
2023-01-29T19:53:09.263Z,72.13
2023-01-29T19:56:14.769Z,72.16
2023-01-29T19:59:16.157Z,72.17
2023-01-29T20:02:17.668Z,72.10
2023-01-29T20:05:19.864Z,71.98
2023-01-29T20:08:23.141Z,71.82
2023-01-29T20:11:24.663Z,71.97
2023-01-29T20:14:26.142Z,71.93
2023-01-29T20:17:27.499Z,71.98
2023-01-29T20:20:32.684Z,71.82
2023-01-29T20:23:38.011Z,71.94
2023-01-29T20:26:40.173Z,72.10
2023-01-29T20:29:42.991Z,72.15
2023-01-29T20:32:44.404Z,72.26
2023-01-29T20:35:52.954Z,72.19
2023-01-29T20:38:54.501Z,72.53
2023-01-29T20:41:56.624Z,72.51
2023-01-29T20:44:58.080Z,72.76
2023-01-29T20:47:59.546Z,73.00
2023-01-29T20:51:07.405Z,72.98
2023-01-29T20:54:09.335Z,72.85
2023-01-29T20:57:10.818Z,72.80
2023-01-29T21:00:14.158Z,72.83
2023-01-29T21:03:15.546Z,72.80
2023-01-29T21:06:16.913Z,73.15
2023-01-29T21:09:19.283Z,72.96
2023-01-29T21:12:20.667Z,72.92
2023-01-29T21:15:22.823Z,72.90
2023-01-29T21:18:27.681Z,72.89
2023-01-29T21:21:29.103Z,72.90
2023-01-29T21:24:30.505Z,72.84
2023-01-29T21:27:31.943Z,72.92
2023-01-29T21:30:33.750Z,72.85
2023-01-29T21:33:35.820Z,72.76
2023-01-29T21:36:37.330Z,73.07
2023-01-29T21:39:39.031Z,73.01
2023-01-29T21:43:00.199Z,73.07
2023-01-29T21:46:04.320Z,73.11
2023-01-29T21:49:05.846Z,73.32
2023-01-29T21:52:10.417Z,73.18
2023-01-29T21:55:11.779Z,73.06
2023-01-29T21:58:14.550Z,73.06
2023-01-29T22:01:36.358Z,73.02
2023-01-29T22:04:37.763Z,73.10
2023-01-29T22:07:39.131Z,73.14
2023-01-29T22:10:40.990Z,73.03
2023-01-29T22:13:42.523Z,73.01
2023-01-29T22:16:44.959Z,73.23
2023-01-29T22:19:46.802Z,73.34
2023-01-29T22:22:48.279Z,73.47
2023-01-29T22:25:49.640Z,73.32
2023-01-29T22:28:51.036Z,73.26
2023-01-29T22:31:52.443Z,73.26
2023-01-29T22:34:54.016Z,73.56
2023-01-29T22:37:55.358Z,73.55
2023-01-29T22:40:59.695Z,73.72
2023-01-29T22:44:01.078Z,73.43
2023-01-29T22:47:02.559Z,73.44
2023-01-29T22:50:05.597Z,73.41
2023-01-29T22:53:13.801Z,73.53
2023-01-29T22:56:15.941Z,73.42
2023-01-29T22:59:17.364Z,73.62
2023-01-29T23:02:18.734Z,73.91
2023-01-29T23:05:20.398Z,74.08
2023-01-29T23:08:21.821Z,74.13
2023-01-29T23:11:23.295Z,74.04
2023-01-29T23:14:24.776Z,73.89
2023-01-29T23:17:26.202Z,73.65
2023-01-29T23:20:27.645Z,73.50
2023-01-29T23:23:29.678Z,73.64
2023-01-29T23:26:49.933Z,73.81
2023-01-29T23:29:51.356Z,74.05
2023-01-29T23:32:52.707Z,74.00
2023-01-29T23:35:54.109Z,73.97
2023-01-29T23:38:55.474Z,73.94
2023-01-29T23:41:56.842Z,74.00
2023-01-29T23:44:58.153Z,73.89
2023-01-29T23:47:59.541Z,74.10
2023-01-29T23:51:01.212Z,74.27
2023-01-29T23:54:03.373Z,74.39
2023-01-29T23:57:04.780Z,74.09
